Time;durP1;ratioP1;P1;durP2;ratioP2;P2;SDS_P1;SDS_P2;PMS_P1;PMS_P2;Temp;Humidity;BMP_temperature;BMP_pressure;BME280_temperature;BME280_humidity;BME280_pressure;Samples;Min_cycle;Max_cycle;Signal;HPM_P1;HPM_P2
2021/10/01 00:02:05;;;;;;;0.60;0.60;;;;;;;;;;5183511;22;20091;-91
2021/10/01 00:04:37;;;;;;;0.40;0.40;;;;;;;;;;5040278;28;20041;-91
2021/10/01 00:07:06;;;;;;;0.30;0.30;;;;;;;;;;5243872;22;20052;-91
2021/10/01 00:14:37;;;;;;;0.32;0.32;;;;;;;;;;5042909;22;20093;-91
2021/10/01 00:17:03;;;;;;;0.63;0.63;;;;;;;;;;5156342;22;20015;-91
2021/10/01 00:19:33;;;;;;;0.98;0.93;;;;;;;;;;5087134;28;20032;-91
2021/10/01 00:22:02;;;;;;;0.45;0.45;;;;;;;;;;5063351;28;20028;-91
2021/10/01 00:24:28;;;;;;;0.82;0.82;;;;;;;;;;5194104;22;20039;-91
2021/10/01 00:26:54;;;;;;;0.57;0.57;;;;;;;;;;5082049;23;20052;-92
2021/10/01 00:36:56;;;;;;;25.52;14.65;;;;;;;;;;5136967;22;20060;-91
2021/10/01 00:41:50;;;;;;;27.83;15.15;;;;;;;;;;5194015;22;20200;-91
2021/10/01 00:46:52;;;;;;;22.25;13.68;;;;;;;;;;5120438;22;20071;-91
2021/10/01 00:49:19;;;;;;;20.95;14.32;;;;;;;;;;5063274;28;20047;-91
2021/10/01 00:54:13;;;;;;;24.30;15.60;;;;;;;;;;5261688;22;20060;-90
2021/10/01 00:56:41;;;;;;;24.65;13.95;;;;;;;;;;5207599;23;20511;-90
2021/10/01 01:01:37;;;;;;;23.65;14.15;;;;;;;;;;5096166;22;20076;-90
2021/10/01 01:04:05;;;;;;;21.73;15.40;;;;;;;;;;5062328;28;20028;-90
2021/10/01 01:06:48;;;;;;;33.85;15.65;;;;;;;;;;5067759;22;20055;-90
2021/10/01 01:09:13;;;;;;;23.63;14.90;;;;;;;;;;5085108;22;20470;-90
2021/10/01 01:11:51;;;;;;;22.08;13.20;;;;;;;;;;5086793;22;20060;-90
2021/10/01 01:17:22;;;;;;;21.13;13.00;;;;;;;;;;1357867;22;20352;-91
2021/10/01 01:25:25;;;;;;;25.23;13.43;;;;;;;;;;5021091;28;20050;-91
2021/10/01 01:30:35;;;;;;;22.52;9.98;;;;;;;;;;5276627;22;20077;-91
2021/10/01 01:33:15;;;;;;;14.93;8.68;;;;;;;;;;1491635;23;20232;-91
2021/10/01 01:35:41;;;;;;;24.52;10.13;;;;;;;;;;5053715;22;20056;-92
2021/10/01 01:38:09;;;;;;;18.60;8.55;;;;;;;;;;5085074;23;20052;-91
2021/10/01 01:40:36;;;;;;;17.58;8.77;;;;;;;;;;5060311;28;20029;-90
2021/10/01 01:43:03;;;;;;;15.95;8.02;;;;;;;;;;5058492;28;20031;-91
2021/10/01 01:45:29;;;;;;;16.33;8.38;;;;;;;;;;5060916;28;20020;-91
2021/10/01 01:47:55;;;;;;;20.42;8.73;;;;;;;;;;5140221;23;20094;-91
2021/10/01 01:50:21;;;;;;;17.58;7.18;;;;;;;;;;5076597;28;20047;-90
2021/10/01 01:52:48;;;;;;;17.10;6.68;;;;;;;;;;5117731;23;20072;-91
2021/10/01 01:55:14;;;;;;;17.13;6.88;;;;;;;;;;5201292;23;20561;-90
2021/10/01 02:00:10;;;;;;;20.83;7.28;;;;;;;;;;5157779;23;20078;-90
2021/10/01 02:02:35;;;;;;;12.73;5.55;;;;;;;;;;5075493;22;20010;-91
2021/10/01 02:07:32;;;;;;;14.63;6.47;;;;;;;;;;5067800;22;20057;-90
2021/10/01 02:09:58;;;;;;;12.18;4.32;;;;;;;;;;5312232;22;20072;-91
2021/10/01 02:12:28;;;;;;;16.27;5.88;;;;;;;;;;5258258;22;20053;-90
2021/10/01 02:14:55;;;;;;;14.35;6.32;;;;;;;;;;5079456;28;20043;-91
2021/10/01 02:17:21;;;;;;;9.82;5.25;;;;;;;;;;5120033;22;20060;-90
2021/10/01 02:19:47;;;;;;;13.63;6.00;;;;;;;;;;5101994;22;20076;-91
2021/10/01 02:22:16;;;;;;;12.98;4.57;;;;;;;;;;5191777;22;20606;-92
2021/10/01 02:27:51;;;;;;;19.33;5.47;;;;;;;;;;3023158;22;20015;-92
2021/10/01 02:38:09;;;;;;;13.93;5.85;;;;;;;;;;5174593;22;20151;-92
2021/10/01 02:40:36;;;;;;;22.80;5.97;;;;;;;;;;5166968;22;20060;-91
2021/10/01 02:43:02;;;;;;;22.55;5.88;;;;;;;;;;5123552;22;20044;-91
2021/10/01 02:45:29;;;;;;;14.55;5.05;;;;;;;;;;5064774;28;20029;-91
2021/10/01 02:47:55;;;;;;;12.63;5.55;;;;;;;;;;5208359;22;20041;-90
2021/10/01 02:50:23;;;;;;;14.07;6.05;;;;;;;;;;5070215;22;20056;-91
2021/10/01 02:53:12;;;;;;;15.10;6.25;;;;;;;;;;5056610;28;20107;-91
2021/10/01 02:59:04;;;;;;;14.70;6.10;;;;;;;;;;5064145;22;20569;-91
2021/10/01 03:01:31;;;;;;;17.08;6.65;;;;;;;;;;5061184;28;20086;-91
2021/10/01 03:04:00;;;;;;;16.52;5.47;;;;;;;;;;5051807;22;20025;-90
2021/10/01 03:06:28;;;;;;;9.50;5.45;;;;;;;;;;5096352;22;20104;-91
2021/10/01 03:08:53;;;;;;;10.00;5.60;;;;;;;;;;5056936;28;20413;-91
2021/10/01 03:11:20;;;;;;;9.75;5.18;;;;;;;;;;5055470;28;20017;-91
2021/10/01 03:16:16;;;;;;;17.42;5.55;;;;;;;;;;5100884;22;20056;-91
2021/10/01 03:18:42;;;;;;;18.27;6.43;;;;;;;;;;5307989;22;20057;-91
2021/10/01 03:21:07;;;;;;;14.23;6.40;;;;;;;;;;5059936;28;20040;-90
2021/10/01 03:23:33;;;;;;;18.83;5.60;;;;;;;;;;5057285;28;20088;-90
2021/10/01 03:25:58;;;;;;;14.70;6.05;;;;;;;;;;5170373;22;20056;-91
2021/10/01 03:28:24;;;;;;;13.20;6.55;;;;;;;;;;5085269;22;20045;-91
2021/10/01 03:30:50;;;;;;;20.63;7.38;;;;;;;;;;5144732;22;20036;-91
2021/10/01 03:33:17;;;;;;;19.30;6.60;;;;;;;;;;5105642;22;20060;-91
2021/10/01 03:35:43;;;;;;;21.25;8.05;;;;;;;;;;5090782;22;20416;-91
2021/10/01 03:43:07;;;;;;;14.32;8.38;;;;;;;;;;5113353;22;20057;-92
2021/10/01 03:45:34;;;;;;;17.67;8.13;;;;;;;;;;5359428;22;20023;-91
2021/10/01 03:48:04;;;;;;;19.80;7.80;;;;;;;;;;5156475;22;20036;-92
2021/10/01 03:50:31;;;;;;;16.42;6.85;;;;;;;;;;5064419;28;20024;-92
2021/10/01 03:52:56;;;;;;;17.25;6.75;;;;;;;;;;5088734;22;20098;-91
2021/10/01 03:55:25;;;;;;;17.52;7.40;;;;;;;;;;5102995;22;20048;-91
2021/10/01 04:00:26;;;;;;;14.57;7.78;;;;;;;;;;5122942;22;20052;-91
2021/10/01 04:05:25;;;;;;;19.67;8.15;;;;;;;;;;5113444;22;20575;-91
2021/10/01 04:07:51;;;;;;;16.67;8.25;;;;;;;;;;5069018;28;20754;-91
2021/10/01 04:10:17;;;;;;;21.02;10.15;;;;;;;;;;5062581;28;20034;-91
2021/10/01 04:12:46;;;;;;;27.40;9.32;;;;;;;;;;5065300;28;20045;-92
2021/10/01 04:15:16;;;;;;;25.35;10.82;;;;;;;;;;5112111;22;20141;-91
2021/10/01 04:20:11;;;;;;;15.65;8.70;;;;;;;;;;5234941;22;20572;-92
2021/10/01 04:25:07;;;;;;;21.70;10.05;;;;;;;;;;5041360;28;20109;-91
2021/10/01 04:30:00;;;;;;;17.75;9.23;;;;;;;;;;5137847;22;20408;-92
2021/10/01 04:32:25;;;;;;;19.00;8.80;;;;;;;;;;5127512;23;20049;-92
2021/10/01 04:37:19;;;;;;;14.65;7.57;;;;;;;;;;5081976;28;20024;-92
2021/10/01 04:39:45;;;;;;;13.43;7.47;;;;;;;;;;5061473;28;20047;-92
2021/10/01 04:42:10;;;;;;;18.05;8.20;;;;;;;;;;5084600;22;20122;-91
2021/10/01 04:47:05;;;;;;;17.17;7.78;;;;;;;;;;5142057;22;20057;-91
2021/10/01 04:49:31;;;;;;;13.85;6.05;;;;;;;;;;5139117;22;20073;-92
2021/10/01 04:51:58;;;;;;;15.07;6.50;;;;;;;;;;5070753;22;20047;-92
2021/10/01 04:54:24;;;;;;;18.38;6.88;;;;;;;;;;5079685;22;20416;-90
2021/10/01 04:56:50;;;;;;;13.80;6.03;;;;;;;;;;5250707;23;20060;-91
2021/10/01 04:59:16;;;;;;;13.07;6.43;;;;;;;;;;5062181;28;20021;-92
2021/10/01 05:01:43;;;;;;;13.07;6.07;;;;;;;;;;5098487;22;20064;-92
2021/10/01 05:04:10;;;;;;;13.82;6.68;;;;;;;;;;5059610;28;20092;-92
2021/10/01 05:09:05;;;;;;;13.88;6.35;;;;;;;;;;5035632;28;20053;-92
2021/10/01 05:16:44;;;;;;;12.60;6.55;;;;;;;;;;5211335;22;1100950;-91
2021/10/01 05:21:47;;;;;;;13.35;5.93;;;;;;;;;;5035148;28;20041;-90
2021/10/01 05:24:16;;;;;;;12.45;6.63;;;;;;;;;;5135078;22;20064;-91
2021/10/01 05:29:11;;;;;;;17.95;6.65;;;;;;;;;;5122821;22;20056;-90
2021/10/01 05:31:37;;;;;;;13.43;6.10;;;;;;;;;;5063332;23;20045;-90
2021/10/01 05:34:05;;;;;;;21.67;7.47;;;;;;;;;;5060518;28;20479;-91
2021/10/01 05:39:00;;;;;;;16.92;6.25;;;;;;;;;;5137295;22;20143;-91
2021/10/01 05:43:54;;;;;;;11.35;5.90;;;;;;;;;;5054054;28;20478;-90
2021/10/01 05:48:52;;;;;;;13.32;5.75;;;;;;;;;;5086363;22;20057;-91
2021/10/01 05:51:17;;;;;;;13.68;5.30;;;;;;;;;;5062650;28;20025;-90
2021/10/01 05:56:24;;;;;;;12.18;5.85;;;;;;;;;;5259002;22;20044;-90
2021/10/01 06:27:01;;;;;;;6.70;3.00;;;;;;;;;;4375628;22;20256;-90
2021/10/01 06:29:29;;;;;;;16.08;3.10;;;;;;;;;;5166990;23;20395;-91
2021/10/01 06:40:12;;;;;;;10.98;3.40;;;;;;;;;;767710;22;20213;-88
2021/10/01 06:42:51;;;;;;;6.82;2.80;;;;;;;;;;4547977;22;20110;-91
2021/10/01 08:32:53;;;;;;;11.88;3.00;;;;;;;;;;2333887;22;20279;-90
2021/10/01 08:42:56;;;;;;;6.10;2.25;;;;;;;;;;1205746;22;20272;31
2021/10/01 09:04:30;;;;;;;8.25;3.00;;;;;;;;;;3229021;22;20311;-89
2021/10/01 09:06:59;;;;;;;5.68;2.60;;;;;;;;;;5174702;23;20051;-90
2021/10/01 09:23:41;;;;;;;5.18;1.90;;;;;;;;;;2365931;22;21994;-90
2021/10/01 09:47:54;;;;;;;6.95;2.53;;;;;;;;;;5348092;22;20135;-90
2021/10/01 09:58:04;;;;;;;9.13;2.55;;;;;;;;;;5074163;23;20547;-90
2021/10/01 10:10:57;;;;;;;6.05;2.10;;;;;;;;;;5010640;28;20141;-90
2021/10/01 10:13:35;;;;;;;10.10;2.38;;;;;;;;;;5093737;23;20473;-89
2021/10/01 10:16:16;;;;;;;6.97;1.90;;;;;;;;;;5052388;28;20400;-89
2021/10/01 10:35:07;;;;;;;6.70;2.00;;;;;;;;;;2377258;22;20196;-90
2021/10/01 10:37:36;;;;;;;11.40;2.15;;;;;;;;;;5038862;23;20264;-90
2021/10/01 10:42:31;;;;;;;7.40;2.15;;;;;;;;;;5078279;22;20057;-90
2021/10/01 10:47:43;;;;;;;4.22;1.98;;;;;;;;;;5109104;22;20420;-89
2021/10/01 10:50:24;;;;;;;5.57;1.63;;;;;;;;;;5248699;22;20092;-90
2021/10/01 10:53:11;;;;;;;6.00;2.08;;;;;;;;;;5036768;23;20052;-90
2021/10/01 11:18:11;;;;;;;6.85;2.35;;;;;;;;;;5101162;22;20048;-91
2021/10/01 11:20:36;;;;;;;5.13;2.15;;;;;;;;;;5052584;28;20055;-91
2021/10/01 11:26:19;;;;;;;8.02;2.40;;;;;;;;;;4989519;28;20061;-91
2021/10/01 11:37:30;;;;;;;7.30;1.95;;;;;;;;;;1988282;22;22029;-90
2021/10/01 11:45:10;;;;;;;5.90;1.85;;;;;;;;;;5032279;28;20770;-90
2021/10/01 11:47:36;;;;;;;5.93;1.98;;;;;;;;;;5034251;28;20032;-90
2021/10/01 11:50:02;;;;;;;7.43;1.80;;;;;;;;;;5017526;28;20021;-90
2021/10/01 11:52:27;;;;;;;4.28;1.90;;;;;;;;;;5018857;28;20087;-89
2021/10/01 11:54:56;;;;;;;7.13;1.95;;;;;;;;;;5017048;28;20025;-91
2021/10/01 11:57:30;;;;;;;8.57;1.67;;;;;;;;;;5017089;28;20390;-90
2021/10/01 12:00:04;;;;;;;9.35;1.88;;;;;;;;;;5003587;28;20036;-90
2021/10/01 12:02:41;;;;;;;7.53;2.50;;;;;;;;;;4995701;28;20133;-90
2021/10/01 12:05:24;;;;;;;7.65;1.80;;;;;;;;;;4997955;28;20018;-91
2021/10/01 12:07:56;;;;;;;7.65;1.45;;;;;;;;;;5022367;23;20013;-91
2021/10/01 12:10:23;;;;;;;5.72;2.08;;;;;;;;;;5036420;28;20025;-91
2021/10/01 12:13:02;;;;;;;5.10;1.88;;;;;;;;;;5036345;28;20017;-90
2021/10/01 12:16:00;;;;;;;4.50;1.45;;;;;;;;;;5107194;22;20021;-90
2021/10/01 12:18:40;;;;;;;6.47;1.50;;;;;;;;;;4986599;28;20053;-90
2021/10/01 12:21:13;;;;;;;5.03;1.85;;;;;;;;;;5018241;28;20026;-90
2021/10/01 12:23:43;;;;;;;10.57;2.30;;;;;;;;;;5049178;22;20482;-90
2021/10/01 12:26:14;;;;;;;7.07;2.38;;;;;;;;;;5080604;22;20056;-90
2021/10/01 12:28:39;;;;;;;;;;;;;;;;;;5071889;22;20048;-90
2021/10/01 12:31:06;;;;;;;8.90;2.58;;;;;;;;;;5055786;28;19924;-90
2021/10/01 12:33:32;;;;;;;8.30;2.30;;;;;;;;;;5054432;28;20387;-90
2021/10/01 12:38:41;;;;;;;5.63;1.65;;;;;;;;;;5066338;22;20060;-91
2021/10/01 12:41:15;;;;;;;7.20;1.92;;;;;;;;;;5135850;22;20060;-90
2021/10/01 12:43:51;;;;;;;7.45;1.85;;;;;;;;;;5082994;23;20458;-90
2021/10/01 12:46:32;;;;;;;8.48;2.03;;;;;;;;;;5055375;28;20044;-90
2021/10/01 12:49:17;;;;;;;4.25;1.92;;;;;;;;;;5034778;28;20024;-90
2021/10/01 12:51:42;;;;;;;5.07;2.10;;;;;;;;;;5035183;28;20029;-90
2021/10/01 12:54:40;;;;;;;9.00;2.50;;;;;;;;;;5034740;28;20154;-90
2021/10/01 12:57:16;;;;;;;6.30;2.00;;;;;;;;;;4981266;28;20032;-90
2021/10/01 12:59:46;;;;;;;7.45;1.70;;;;;;;;;;5103416;22;20171;-90
2021/10/01 13:02:31;;;;;;;10.27;1.80;;;;;;;;;;5055705;28;20032;-90
2021/10/01 13:04:59;;;;;;;8.15;2.33;;;;;;;;;;5037125;28;20046;-90
2021/10/01 13:07:29;;;;;;;5.28;2.03;;;;;;;;;;5065420;28;20017;-90
2021/10/01 13:09:55;;;;;;;7.18;1.55;;;;;;;;;;5055465;28;20103;-90
2021/10/01 13:12:31;;;;;;;6.70;1.90;;;;;;;;;;5054905;28;20020;-90
2021/10/01 13:15:10;;;;;;;8.80;1.85;;;;;;;;;;5053756;28;20052;-90
2021/10/01 13:17:40;;;;;;;6.13;1.88;;;;;;;;;;5072991;28;20028;-90
2021/10/01 13:20:06;;;;;;;7.25;1.83;;;;;;;;;;5054607;28;20020;-90
2021/10/01 13:28:06;;;;;;;8.25;2.00;;;;;;;;;;5203806;22;20083;-90
2021/10/01 13:30:32;;;;;;;7.03;1.77;;;;;;;;;;5059600;23;20821;-90
2021/10/01 13:35:46;;;;;;;4.07;1.55;;;;;;;;;;5047887;28;20040;-89
2021/10/01 13:38:12;;;;;;;5.32;1.92;;;;;;;;;;5033599;28;20043;-89
2021/10/01 13:40:38;;;;;;;5.75;1.90;;;;;;;;;;5033664;28;20029;-89
2021/10/01 13:43:03;;;;;;;6.55;1.73;;;;;;;;;;5032975;28;20714;-89
2021/10/01 13:48:15;;;;;;;8.93;2.10;;;;;;;;;;1267421;22;20304;-89
2021/10/01 13:50:41;;;;;;;5.90;1.90;;;;;;;;;;5010507;28;20068;-89
2021/10/01 13:53:07;;;;;;;8.65;2.08;;;;;;;;;;4994058;28;20397;-89
2021/10/01 13:55:33;;;;;;;6.43;1.73;;;;;;;;;;4994125;28;20018;-89
2021/10/01 13:57:58;;;;;;;6.70;1.80;;;;;;;;;;4993872;28;20022;-89
2021/10/01 14:00:25;;;;;;;4.37;1.63;;;;;;;;;;4994514;28;20026;-90
2021/10/01 14:02:51;;;;;;;6.65;2.05;;;;;;;;;;4993345;28;20768;-90
2021/10/01 14:05:16;;;;;;;11.10;2.10;;;;;;;;;;4993751;28;20022;-89
2021/10/01 14:07:42;;;;;;;6.97;2.30;;;;;;;;;;4993880;28;20269;-89
2021/10/01 14:10:09;;;;;;;13.10;3.17;;;;;;;;;;4994071;28;20024;-89
2021/10/01 14:12:34;;;;;;;4.40;1.98;;;;;;;;;;4993957;28;20025;-89
2021/10/01 14:15:02;;;;;;;7.88;2.40;;;;;;;;;;4994645;28;20018;-90
2021/10/01 14:24:56;;;;;;;5.22;1.63;;;;;;;;;;5729975;22;20056;-90
2021/10/01 14:27:24;;;;;;;4.18;1.40;;;;;;;;;;5052923;28;20029;-90
2021/10/01 14:29:54;;;;;;;7.38;1.85;;;;;;;;;;5602736;22;20020;-89
2021/10/01 14:40:49;;;;;;;10.07;1.83;;;;;;;;;;2051615;22;20019;-89
2021/10/01 14:43:14;;;;;;;;;;;;;;;;;;5027688;28;20045;-89
2021/10/01 14:48:12;;;;;;;5.60;2.33;;;;;;;;;;1796424;22;20401;-88
2021/10/01 14:50:44;;;;;;;7.70;2.30;;;;;;;;;;5011046;28;20045;-89
2021/10/01 14:53:12;;;;;;;11.77;2.00;;;;;;;;;;4997582;28;20060;-89
2021/10/01 14:55:37;;;;;;;5.82;2.00;;;;;;;;;;4992608;28;20545;-89
2021/10/01 14:58:03;;;;;;;7.15;2.40;;;;;;;;;;4993041;28;20486;-89
2021/10/01 15:00:30;;;;;;;8.77;2.20;;;;;;;;;;4993689;28;20057;-90
2021/10/01 15:02:56;;;;;;;6.20;1.92;;;;;;;;;;4993480;28;20269;-88
2021/10/01 15:05:22;;;;;;;4.50;1.67;;;;;;;;;;4993364;28;20050;-89
2021/10/01 15:07:47;;;;;;;6.30;1.83;;;;;;;;;;4993396;28;20050;-89
2021/10/01 15:10:12;;;;;;;10.25;2.47;;;;;;;;;;4997790;28;20731;-89
2021/10/01 15:12:38;;;;;;;8.57;1.85;;;;;;;;;;5011262;28;20108;-89
2021/10/01 15:15:07;;;;;;;8.05;2.22;;;;;;;;;;4995853;28;20026;-89
2021/10/01 15:17:33;;;;;;;9.30;2.30;;;;;;;;;;4988343;28;20031;-89
2021/10/01 15:19:58;;;;;;;10.65;2.10;;;;;;;;;;4990471;28;20037;-90
2021/10/01 15:22:23;;;;;;;6.47;2.03;;;;;;;;;;4997647;28;20048;-89
2021/10/01 15:24:49;;;;;;;9.50;2.03;;;;;;;;;;5011985;28;20737;-89
2021/10/01 15:27:14;;;;;;;6.03;1.77;;;;;;;;;;4996022;28;20261;-89
2021/10/01 15:29:58;;;;;;;8.00;2.10;;;;;;;;;;4978463;28;20292;-89
2021/10/01 15:32:28;;;;;;;8.02;1.75;;;;;;;;;;4981966;28;20866;-91
2021/10/01 15:34:54;;;;;;;7.00;2.08;;;;;;;;;;4995531;28;20160;-90
2021/10/01 15:37:21;;;;;;;11.07;1.90;;;;;;;;;;5198452;23;20066;-90
2021/10/01 16:21:58;;;;;;;6.85;1.90;;;;;;;;;;1547498;22;22880;-89
2021/10/01 16:26:57;;;;;;;8.13;2.03;;;;;;;;;;5244339;22;20927;-90
2021/10/01 16:54:41;;;;;;;5.32;2.20;;;;;;;;;;1041601;22;20217;-87
2021/10/01 16:57:06;;;;;;;10.40;2.15;;;;;;;;;;4997934;28;20067;-88
2021/10/01 16:59:38;;;;;;;6.82;2.08;;;;;;;;;;4013948;22;20360;31
2021/10/01 17:16:00;;;;;;;5.55;2.38;;;;;;;;;;4430201;22;21881;-88
2021/10/01 17:20:55;;;;;;;8.90;2.35;;;;;;;;;;5030207;28;20061;-89
2021/10/01 17:29:06;;;;;;;6.30;2.67;;;;;;;;;;3721303;22;20020;-88
2021/10/01 17:37:03;;;;;;;7.10;2.38;;;;;;;;;;5134674;22;20056;-89
2021/10/01 17:48:05;;;;;;;7.88;3.17;;;;;;;;;;5154643;23;20113;-89
2021/10/01 17:50:32;;;;;;;7.55;2.42;;;;;;;;;;5053796;28;20032;-90
2021/10/01 17:52:58;;;;;;;8.45;2.55;;;;;;;;;;5071602;28;20028;-89
2021/10/01 17:55:24;;;;;;;8.80;2.67;;;;;;;;;;5053522;28;20025;-89
2021/10/01 17:57:50;;;;;;;8.85;2.97;;;;;;;;;;5077653;22;20060;-89
2021/10/01 18:02:45;;;;;;;8.38;2.72;;;;;;;;;;5501200;22;20078;-89
2021/10/01 18:05:27;;;;;;;8.03;2.53;;;;;;;;;;5053755;28;20032;-91
2021/10/01 18:07:53;;;;;;;9.60;2.80;;;;;;;;;;5068468;22;20308;-89
2021/10/01 18:10:25;;;;;;;7.23;2.40;;;;;;;;;;5011991;28;20151;-91
2021/10/01 18:12:53;;;;;;;9.77;2.88;;;;;;;;;;5009506;28;20355;-89
2021/10/01 18:15:29;;;;;;;8.25;2.83;;;;;;;;;;5010443;28;20069;-89
2021/10/01 18:23:03;;;;;;;6.20;2.17;;;;;;;;;;5097624;22;20057;-89
2021/10/01 18:28:00;;;;;;;7.22;2.72;;;;;;;;;;5078887;22;20052;-90
2021/10/01 18:30:26;;;;;;;12.13;2.60;;;;;;;;;;5052567;28;20016;-90
2021/10/01 18:41:16;;;;;;;9.27;1.95;;;;;;;;;;5273042;22;20048;-88
2021/10/01 18:51:48;;;;;;;9.63;2.10;;;;;;;;;;2482448;22;20357;-88
2021/10/01 18:54:13;;;;;;;5.18;2.30;;;;;;;;;;4971550;28;20093;-89
2021/10/01 18:56:39;;;;;;;7.57;2.20;;;;;;;;;;4957042;28;20034;-89
2021/10/01 19:09:47;;;;;;;6.00;2.08;;;;;;;;;;5048788;28;19971;-88
2021/10/01 19:14:48;;;;;;;3.30;1.58;;;;;;;;;;5965329;22;20487;-89
2021/10/01 19:17:17;;;;;;;5.43;1.88;;;;;;;;;;5167313;22;20011;-89
2021/10/01 19:19:43;;;;;;;4.93;1.88;;;;;;;;;;5049306;23;20053;-89
2021/10/01 19:22:13;;;;;;;6.93;2.35;;;;;;;;;;5024647;28;20110;-90
2021/10/01 19:24:56;;;;;;;2.72;1.58;;;;;;;;;;5117724;23;20050;-89
2021/10/01 19:32:35;;;;;;;5.97;1.88;;;;;;;;;;5030581;28;20068;-87
2021/10/01 19:35:00;;;;;;;4.82;1.75;;;;;;;;;;5013418;28;20021;-87
2021/10/01 19:40:18;;;;;;;2.85;1.45;;;;;;;;;;4970637;28;20094;-88
2021/10/01 19:42:43;;;;;;;8.00;1.80;;;;;;;;;;4982205;28;20462;-88
2021/10/01 19:45:11;;;;;;;4.70;1.73;;;;;;;;;;5009472;28;20026;-88
2021/10/01 19:47:36;;;;;;;3.95;1.80;;;;;;;;;;5006838;28;20031;-87
2021/10/01 19:50:03;;;;;;;8.20;2.37;;;;;;;;;;4991302;28;20092;-87
2021/10/01 19:52:29;;;;;;;4.05;1.80;;;;;;;;;;4991012;28;20285;-87
2021/10/01 19:54:54;;;;;;;5.22;1.90;;;;;;;;;;4991537;28;20521;-87
2021/10/01 19:57:21;;;;;;;7.53;2.00;;;;;;;;;;5005899;28;20071;-88
2021/10/01 20:07:32;;;;;;;2.85;1.60;;;;;;;;;;5323257;22;20437;-89
2021/10/01 20:09:58;;;;;;;7.20;1.75;;;;;;;;;;5074352;23;20068;-89
2021/10/01 20:12:23;;;;;;;3.97;1.88;;;;;;;;;;5052207;28;20026;-89
2021/10/01 20:14:49;;;;;;;6.32;1.98;;;;;;;;;;5034855;28;20021;-88
2021/10/01 20:17:16;;;;;;;5.82;1.70;;;;;;;;;;5023233;28;20026;-90
2021/10/01 20:22:25;;;;;;;5.03;1.92;;;;;;;;;;5034835;28;20013;-90
2021/10/01 20:46:54;;;;;;;3.83;1.90;;;;;;;;;;4996750;28;20537;-90
2021/10/01 20:49:21;;;;;;;6.22;2.20;;;;;;;;;;5033950;28;20021;-90
2021/10/01 20:51:47;;;;;;;3.55;1.73;;;;;;;;;;5019121;28;20544;-89
2021/10/01 20:54:15;;;;;;;6.53;2.03;;;;;;;;;;5016192;28;20112;-90
2021/10/01 20:56:42;;;;;;;4.97;1.88;;;;;;;;;;5020991;28;20553;-89
2021/10/01 21:40:17;;;;;;;5.38;2.35;;;;;;;;;;5035246;28;20024;-90
2021/10/01 21:42:58;;;;;;;4.20;2.35;;;;;;;;;;5017636;28;20021;-91
2021/10/01 21:45:36;;;;;;;5.55;2.28;;;;;;;;;;5016084;28;20021;-91
2021/10/01 21:48:11;;;;;;;5.10;2.22;;;;;;;;;;5036622;28;20048;-91
2021/10/01 21:50:37;;;;;;;8.98;2.95;;;;;;;;;;5033219;28;20021;-91
2021/10/01 21:53:04;;;;;;;2.95;1.85;;;;;;;;;;5014979;28;20033;-91
2021/10/01 21:55:30;;;;;;;5.68;2.47;;;;;;;;;;5015860;28;20388;-91
2021/10/01 21:57:55;;;;;;;7.97;2.85;;;;;;;;;;5015308;28;20017;-91
2021/10/01 22:00:36;;;;;;;4.45;2.05;;;;;;;;;;5015322;28;20032;-91
2021/10/01 22:21:29;;;;;;;7.38;2.60;;;;;;;;;;5032459;28;20550;-91
2021/10/01 22:23:55;;;;;;;6.05;2.47;;;;;;;;;;5017096;28;20401;-91
2021/10/01 22:26:22;;;;;;;7.57;3.22;;;;;;;;;;5014072;28;20044;-90
2021/10/01 22:28:49;;;;;;;8.93;2.60;;;;;;;;;;5014026;28;20076;-90
2021/10/01 22:31:16;;;;;;;6.97;2.70;;;;;;;;;;5017500;28;20049;-91
2021/10/01 22:33:42;;;;;;;9.30;3.08;;;;;;;;;;5014059;28;20029;-91
2021/10/01 22:36:08;;;;;;;9.07;3.50;;;;;;;;;;5014113;28;20104;-91
2021/10/01 22:38:34;;;;;;;5.43;2.40;;;;;;;;;;5031857;28;20611;-91
2021/10/01 22:41:02;;;;;;;9.38;2.88;;;;;;;;;;5017618;28;20024;-91
2021/10/01 22:43:33;;;;;;;5.10;2.50;;;;;;;;;;5013811;28;20116;-91
2021/10/01 22:45:58;;;;;;;5.57;2.88;;;;;;;;;;5013780;28;20017;-90
2021/10/01 22:48:23;;;;;;;6.20;3.03;;;;;;;;;;5017487;28;20056;-90
2021/10/01 22:50:50;;;;;;;7.65;3.28;;;;;;;;;;5013834;28;20025;-90
2021/10/01 22:53:16;;;;;;;9.23;3.53;;;;;;;;;;5014337;28;20071;-90
2021/10/01 22:55:43;;;;;;;7.50;2.95;;;;;;;;;;5016218;28;20018;-91
2021/10/01 22:58:09;;;;;;;9.68;3.63;;;;;;;;;;5013602;28;20021;-90
2021/10/01 23:00:35;;;;;;;9.13;3.15;;;;;;;;;;5014055;28;20080;-90
2021/10/01 23:03:01;;;;;;;8.75;3.50;;;;;;;;;;5013608;28;20025;-91
2021/10/01 23:05:29;;;;;;;5.72;3.35;;;;;;;;;;5014055;28;20385;-90
2021/10/01 23:07:58;;;;;;;8.10;3.13;;;;;;;;;;5016207;28;20079;-90
2021/10/01 23:16:09;;;;;;;3.70;2.50;;;;;;;;;;5035897;28;20029;-91
2021/10/01 23:45:52;;;;;;;6.78;2.95;;;;;;;;;;5038776;28;20462;-90
